Hillgrove, Washington
Current Conditions -  °F | °C
As of 12:01 AM on Thursday 23 Oct 2014 (Local Time) from KSHN Reporting Station
Overcast Overcast  
Wind Chill: 52°   Ceiling: 6000
Heat Index: 52°   Visibility: 10mi
Dew Point: 50°   Wind: 3mph
Humidity: 93%   Direction: 180°S
Pressure: 29.68"   Gusts: NA
Location:  47.0427°N, 123.269°W
Report Text: KSHN 230701Z AUTO 18003KT 10SM SCT011 BKN060 OVC080 11/10 A2968 RMK AO2 T01110100 TSNO
Loading
Personal Weather Stations






























Interactive Weather Map
Tropical Storm Tracking
New forecast layout! Learn more

10-Day Weather Forecast

Advertisements
Track Severe Weather on mobile